National Weather Service United States Department of Commerce

SFO Marine Stratus Forecast System

Last refreshed: 0812Z Refresh page

Approach Clear

CWSU Oakland Forecast

Pending CWSU Input


 


Details

Model Forecast

Approach clear at N/A GMT

Component models:

COBELN/A
LocalN/A
RegionalN/A
SatelliteN/A

Winter Mode Model quality indicator

Reliability reason:
Model quality: n/a

Forecasts return May 15


Probability of clearing by:

17Z 18Z 19Z 20Z
-- -- -- --

Details

WFO Monterey Discussion

Terminal:

Approach: Similar to the terminal.

Updated Fri Mar 27 04:45Z


Details

Satellite image
Click to loop

Observations

Time Temp Dew Wind Clouds Vis

SFO

Sky cover icon080055552910CLR  10

SMB

Sky cover icon080761543006CLR  10

Terminal Forecast

KSFO 270524Z 2706/2812 28008KT P6SM FEW100
      FM271100 VRB03KT P6SM FEW010
      FM272100 28015KT P6SM FEW100
      FM280400 28012KT P6SM SCT010 BKN200
      FM280700 28008KT P6SM BKN010
					

More